Alta Hourly Wx Roundup
ALTA 8/21/2017
click here for graph
Temp / RH Sensor out @ 8,550 ft site.
        DATE  TIME Temp F Total   h2o Temp F Temp F  RH %  RH % W_Spd W_Dir W_Gust W_Spd W_Dir W_Gust   h2o  BATT
                      9664  9664  9664    8550   10500  8550 10500  8550  8550   8550 10500 10500  10500  8550 10500
                       AVG Depth [1HR]     AVG     AVG   AVG   AVG   AVG   AVG    MAX   AVG   AVG    MAX (1HR)   AVG

   8/21/2017 15:00      66   2.6  0.00      26      60    63    42     5   224     11     0   298      0  0.00 12.97
   8/21/2017 14:00      66   2.8  0.00      16      60    64    40     5   233     11     0   298      0  0.00 12.97
   8/21/2017 13:00      62   3.1  0.00      34      59    61    40     1   123      7     0   298      0  0.00 12.97
   8/21/2017 12:00      61   3.3  0.00      49      57    59    41     3    75      9     0   298      0  0.00 12.97
   8/21/2017 11:00      64   3.4  0.00      18      60    64    34     4   107      9     0   298      0  0.00 12.97
   8/21/2017 10:00      61   3.3  0.00      27      58    62    36     2   158      8     0   298      0  0.00 12.98
   8/21/2017 09:00      54   3.9  0.00      52      57    55    36     4   104      7     0   298      0  0.00 12.98
   8/21/2017 08:00      54   3.8  0.00      78      55    50    38     5   108      8     0   298      0  0.00 12.98
   8/21/2017 07:00      54   3.8  0.00      75      55    50    38     6   106      8     0   298      0  0.00 12.98
   8/21/2017 06:00      54   3.7  0.00      72      55    50    37     5   103      7     0   298      0  0.00 12.98
   8/21/2017 05:00      54   3.6  0.00      72      54    50    39     5   101      7     0   298      0  0.00 12.98
   8/21/2017 04:00      53   3.6  0.00      71      55    50    39     5   100      8     0   298      0  0.00 12.97
   8/21/2017 03:00      54   3.5  0.00      69      55    50    38     5    99      7     0   298      0  0.00 12.98
   8/21/2017 02:00      53   3.6  0.00      67      55    51    37     5   104      7     0   298      0  0.00 12.97
   8/21/2017 01:00      54   0.0  0.00      69      56    51    38     5    98      8     0   298      0  0.00 12.98
   8/20/2017 24:00      56   0.0  0.00      67      56    52    40     5    99      7     0   298      0  0.00 12.97
   8/20/2017 23:00      57   3.5  0.00      65      55    52    40     5    97      7     0   298      0  0.00 12.98
   8/20/2017 22:00      57   3.6  0.00      61      56    54    41     4   100      7     0   298      0  0.00 12.98
   8/20/2017 21:00      58   4.0  0.00      60      58    55    40     4   106      7     0   298      0  0.00 12.98
   8/20/2017 20:00      60   4.2  0.00      53      61    56    35     2   117      5     0   298      0  0.00 12.98
   8/20/2017 19:00      63   4.6  0.00      28      61    60    32     4   247     12     0   298      0  0.00 12.98
   8/20/2017 18:00      66   3.5  0.00       4      64    65    27     5   241     14     0   298      0  0.00 12.98
   8/20/2017 17:00      70   2.6  0.00       1      65    66    26     5   249     13     0   298      0  0.00 12.98
   8/20/2017 16:00      71   2.6  0.00       2      63    65    28     8   255     21     0   298      0  0.00 12.98


click here for graph